EA1IQF
43.26.55N 005.51.28W
IN73BK aprs.fi
zuletzt gehoert:
2022-09-02T05:43:42Z
zuerst gehoert:
2022-07-04T05:55:17Z

APRS Llanera [IN73BK], 2 Stunde(n), EA1IQF [07:04:31, 0s].
LEGM 43.26.15N 005.49.84WIN73CK 1.814km 100°E05:00:04ZHelipuerto de La Morgal (123.500MHz): LEAS 250414Z 25004KT 210V290 9999 SCT030CB SCT060 BKN070 12/11 Q1018 TEMPO SHRA SCT035TCU=
LEMR 43.25.83N 005.49.60WIN73CK 2.292km 114°ESE05:00:05ZAerodromo de la Morgal (123.500MHz): LEAS 250414Z 25004KT 210V290 9999 SCT030CB SCT060 BKN070 12/11 Q1018 TEMPO SHRA SCT035TCU=
EA1ABW 43.24.77N 005.47.77WIN73CJ 5.389km 122°ESE05:00:35ZMMDVM MMDVM HS Hat 439.8250/439.8250 CC1(3EA1ABW-2)
MMDVM MMDVM HS Hat 439.8250/439.8250 CC1(2EA1ABW-1)
EA1IPU 43.26.21N 005.46.62WIN73CK 6.123km 92°E05:00:45ZMMDVM MMDVM HS Hat 439.8000/439.8000 CC1(3EA1IPU-1)
ED1ZAU 43.23.04N 005.52.75WIN73BJ 6.462km 199°SSW05:00:13ZRD625 438.5000/430.9000 CC1
LEHU 43.22.63N 005.49.57WIN73CJ 7.181km 163°SSE05:00:04ZHelipuerto del HUCA: LEAS 250414Z 25004KT 210V290 9999 SCT030CB SCT060 BKN070 12/11 Q1018 TEMPO SHRA SCT035TCU=
EA1JBU 43.21.85N 005.51.13WIN73BI 8.301km 180°S04:32:02ZEA1JBU(3EA1JBU-1)
33D00 43.21.63N 005.51.13WIN73BI 8.709km 180°S05:01:42Z33-D-00 Protección Civil REMER / Delegación del Gobierno en Asturias
ED1ZAY 43.29.47N 005.56.54WIN73AL 9.298km 309°NW05:00:10ZRD625 438.3000/430.7000 CC1
EA1L 43.20.37N 005.51.13WIN73BI 11.025km 180°S05:00:08Zea1l@ure.es V=13.0V
Wind 173°/000kn, Böen bis 002kn, Temp 15.00c, Regen 0.0mm, letzte 24h 11.7mm, seit 0h 11.7mm, Baro 1016.3h, Hum: 0%(2EA1L-13)
EA1AHA 43.32.72N 005.54.38WIN73BN 12.621km 340°NNW05:01:01ZWind 225°/004kn, Böen bis 006kn, Temp 13.33c, Regen 0.0mm, letzte 24h 6.9mm, seit 0h 6.9mm, Baro 1019.7h, Hum: 87%(3EA1AHA-13)
EA1HWX 43.19.28N 005.50.98WIN73BH 13.066km 179°S05:01:33ZDMO - UHF 439.7250/431.0000 CC11(3EA1HWX-2)
MMDVM DMO 222.3400/222.3400 CC1(2EA1HWX-10)
ED1ZAE 43.27.99N 005.40.54WIN73DL 14.610km 78°ENE05:03:15Z2m Voice 145.5875 -0.600 Mhz(3ED1ZAE-C)
400 M. PICO SAN MARTIN (GIJON) 13.3V,16.1C(2ED1ZAE-3)
ED1ZAS 43.27.52N 005.40.17WIN73DL 14.948km 81°E05:00:11ZRD985 438.2250/430.6250 CC1
EB1TK 43.32.22N 005.42.32WIN73DM 16.156km 47°NE05:00:17ZWind 235°/007kn, Böen bis 011kn, Temp 13.33c, Regen 0.0mm, letzte 24h 7.1mm, seit 0h 7.1mm, Baro 1020.6h, Hum: 92%(3EB1TK-13)
EA1FFA 43.31.53N 005.40.64WIN73DM 17.133km 56°NE05:01:13ZMMDVM MMDVM HS Hat 438.8000/438.8000 CC1(3EA1FFA-1)
LEEL 43.32.98N 005.41.71WIN73DN 17.695km 46°NE05:00:05ZHelipuerto de El Musel: LEAS 250414Z 25004KT 210V290 9999 SCT030CB SCT060 BKN070 12/11 Q1018 TEMPO SHRA SCT035TCU=
EA1IEJ 43.31.83N 005.40.22WIN73DM 17.892km 55°NE05:01:42ZMMDVM MMDVM HS Hat 438.8500/438.8500 CC6(3EA1IEJ-1)
MMDVM DMO 222.3400/222.3400 CC1(2EA1IEJ-11)
EB1EHT 43.32.47N 005.40.40WIN73DM 18.401km 52°NE05:00:42Z440 MMDVM Voice 433.55500MHz +0.0000MHz, APRS for DMRGateway(3EB1EHT-D)
MMDVM MMDVM HS Hat 433.5550/433.5550 CC2(2EB1EHT-1)
EB1GEM 43.30.00N 005.36.07WIN73EM 21.418km 71°ENE05:01:47ZWX3in1Plus2.0 U=13.3V,T=??.?C/??.?F(3EB1GEM-3)
EA1FLQ 43.22.00N 005.36.35WIN73EI 21.489km 112°ESE05:01:20ZMMDVM DVMega 430.9750/430.9750 CC1
EA1IMW 43.14.36N 005.46.93WIN73CF 22.903km 166°SSE05:01:45ZGRUPO RADIO GALENA (GRG) 430.4500/430.4500 CC1(3EA1IMW-1)
EA1JBL 43.12.28N 005.47.42WIN73CE 26.499km 169°S05:01:25ZMMDVM DVMega 435.3000/435.3000 CC1
EB1DGC 43.12.60N 005.45.59WIN73CF 26.525km 164°SSE05:00:57ZMMDVM MMDVM HS Hat 433.4500/433.4500 CC1
EA1HWA 43.12.00N 005.47.40WIN73CE 27.034km 169°S05:00:52ZMMDVM MMDVM HS Hat 433.4500/433.4500 CC1
EA1HJA 43.28.10N 005.30.45WIN73FL 28.061km 83°E04:50:31Z IN73FL WX3IN1+ 2.0 - V=13.6V,TX TEMP=45.2C
IN73FL WX3IN1+ 2.0 - V=13.2V,TX TEMP=29.3C(2EA1HJA-2)
EA1RCG 43.09.45N 005.49.78WIN73CD 31.315km 177°S05:01:27ZGRUPO RADIO GALENA (GRG) 430.4500/430.4500 CC1(3EA1RCG-3)
EA1JW 43.31.35N 005.28.83WIN73GM 31.441km 73°ENE05:01:24ZMMDVM MMDVM HS Hat 436.5000/436.5000 CC1(3EA1JW-3)
EA1JAY 43.29.33N 005.26.78WIN73GL 33.270km 80°E05:00:06Z434.525MHz Nodo TETRA DMO(3EA1JAY-4)
EA1JAY(2EA1JAY-2)
EA1FHR 43.28.72N 005.26.41WIN73GL 33.579km 82°E05:00:35ZMMDVM MMDVM HS Hat 439.1500/439.1500 CC1
EA1HWD 43.28.96N 005.26.30WIN73GL 33.800km 82°E05:01:14ZMMDVM MMDVM HS Hat 434.2500/434.2500 CC1
EC1KV 43.34.01N 006.16.01WIN63UN 36.294km 293°WNW04:44:29Z VOLT.=13.7 V - TEMP.=??.? C(3EC1KV-1)
ED1ZAD 43.07.90N 005.38.52WIN73ED 38.152km 153°SSE05:00:34ZED1ZAD-3 APRS Digi/Igate(3ED1ZAD-3)
LETN 43.20.05N 006.22.69WIN63TI 44.027km 255°WSW05:00:06ZAerodromo de La Curiscada (Tineo): LEAS 250414Z 25004KT 210V290 9999 SCT030CB SCT060 BKN070 12/11 Q1018 TEMPO SHRA SCT035TCU=
EA1DZR 43.12.88N 005.24.00WIN73HF 44.286km 124°SE04:53:39ZMMDVM DVMega 431.1000/431.1000 CC1(3EA1DZR-1)
MMDVM MMDVM HS Hat 432.1000/432.1000 CC2(2EA1DZR-2)
MMDVM DV ADER 434.3500/434.3500 CC1(2EA1DZR-4)
440 MMDVM Voice 433.10000MHz +0.0000MHz, APRS for DMRGateway(2EA1DZR-D)
EA1JBE 43.30.90N 005.16.15WIN73IM 47.841km 80°E05:00:05Z440 MMDVM Voice 433.10000MHz +0.0000MHz, APRS for DMRGateway(3EA1JBE-13)
MAIN QTH http://qrz.com/db/ea1jbe(2EA1JBE-1)

aprs.pl 5.0.011w DL3EL © 2006-2021 [5529251]